createdAt,value
2019-03-31T00:00:04.157Z,0.00
2019-03-31T00:01:08.502Z,0.00
2019-03-31T00:02:04.150Z,0.00
2019-03-31T00:03:04.351Z,0.00
2019-03-31T00:04:04.354Z,0.00
2019-03-31T00:05:04.164Z,0.00
2019-03-31T00:06:04.126Z,0.00
2019-03-31T00:07:04.125Z,0.00
2019-03-31T00:08:04.117Z,0.00
2019-03-31T00:09:04.123Z,0.00
2019-03-31T00:10:04.127Z,0.00
2019-03-31T00:11:04.108Z,0.00
2019-03-31T00:12:04.099Z,0.00
2019-03-31T00:13:04.287Z,0.00
2019-03-31T00:14:04.309Z,0.00
2019-03-31T00:15:04.082Z,0.00
2019-03-31T00:16:04.095Z,0.00
2019-03-31T00:17:04.063Z,0.00
2019-03-31T00:18:04.063Z,0.00
2019-03-31T00:19:04.058Z,0.00
2019-03-31T00:20:04.048Z,0.00
2019-03-31T00:21:04.248Z,0.00
2019-03-31T00:22:04.247Z,0.00
2019-03-31T00:23:04.032Z,0.00
2019-03-31T00:24:04.026Z,0.00
2019-03-31T00:25:04.035Z,0.00
2019-03-31T00:26:04.017Z,0.00
2019-03-31T00:27:04.017Z,0.00
2019-03-31T00:28:04.009Z,0.00
2019-03-31T00:29:04.000Z,0.00
2019-03-31T00:30:03.993Z,0.00
2019-03-31T00:31:03.992Z,0.00
2019-03-31T00:32:04.071Z,0.00
2019-03-31T00:33:04.181Z,0.00
2019-03-31T00:34:03.977Z,0.00
2019-03-31T00:35:03.989Z,0.00
2019-03-31T00:36:04.179Z,0.00
2019-03-31T00:37:03.967Z,0.00
2019-03-31T00:38:04.154Z,0.00
2019-03-31T00:39:03.951Z,0.00
2019-03-31T00:40:04.147Z,0.00
2019-03-31T00:41:04.145Z,0.00
2019-03-31T00:42:04.146Z,0.00
2019-03-31T00:43:03.916Z,0.00
2019-03-31T00:44:03.926Z,0.00
2019-03-31T00:45:03.930Z,0.00
2019-03-31T00:46:03.916Z,0.00
2019-03-31T00:47:03.924Z,0.00
2019-03-31T00:48:03.890Z,0.00
2019-03-31T00:49:03.909Z,0.00
2019-03-31T00:50:03.879Z,0.00
2019-03-31T00:51:03.882Z,0.00
2019-03-31T00:52:04.065Z,0.00
2019-03-31T00:53:03.859Z,0.00
2019-03-31T00:54:03.855Z,0.00
2019-03-31T00:55:03.864Z,0.00
2019-03-31T00:56:03.842Z,0.00
2019-03-31T00:57:03.841Z,0.00
2019-03-31T00:58:03.849Z,0.00
2019-03-31T00:59:03.823Z,0.00
2019-03-31T01:00:03.823Z,0.00
2019-03-31T01:01:03.832Z,0.00
2019-03-31T01:02:03.814Z,0.00
2019-03-31T01:03:03.822Z,0.00
2019-03-31T01:04:03.796Z,0.00
2019-03-31T01:05:03.811Z,0.00
2019-03-31T01:06:03.809Z,0.00
2019-03-31T01:07:03.792Z,0.00
2019-03-31T01:08:03.791Z,0.00
2019-03-31T01:09:03.976Z,0.00
2019-03-31T01:10:03.767Z,0.00
2019-03-31T01:11:03.758Z,0.00
2019-03-31T01:12:03.862Z,0.00
2019-03-31T01:13:03.775Z,0.00
2019-03-31T01:14:03.761Z,0.00
2019-03-31T01:15:03.734Z,0.00
2019-03-31T01:16:03.732Z,0.00
2019-03-31T01:17:03.754Z,0.00
2019-03-31T01:18:03.720Z,0.00
2019-03-31T01:19:03.724Z,0.00
2019-03-31T01:20:03.705Z,0.00
2019-03-31T01:21:03.902Z,0.00
2019-03-31T01:22:03.700Z,0.00
2019-03-31T01:23:03.711Z,0.00
2019-03-31T01:24:03.703Z,0.00
2019-03-31T01:25:03.692Z,0.00
2019-03-31T01:26:03.671Z,0.00
2019-03-31T01:27:03.668Z,0.00
2019-03-31T01:28:03.872Z,0.00
2019-03-31T01:29:03.691Z,0.00
2019-03-31T01:30:03.645Z,0.00
2019-03-31T01:31:03.640Z,0.00
2019-03-31T01:32:03.645Z,0.00
2019-03-31T01:33:03.637Z,0.00
2019-03-31T01:34:03.639Z,0.00
2019-03-31T01:35:03.843Z,0.00
2019-03-31T01:36:03.613Z,0.00
2019-03-31T01:37:03.639Z,0.00
2019-03-31T01:38:03.831Z,0.00
2019-03-31T01:39:03.598Z,0.00
2019-03-31T01:40:03.619Z,0.00
2019-03-31T01:41:03.585Z,0.00
2019-03-31T01:42:03.582Z,0.00
2019-03-31T01:43:03.573Z,0.00
2019-03-31T01:44:03.590Z,0.00
2019-03-31T01:45:03.562Z,0.00
2019-03-31T01:46:03.556Z,0.00
2019-03-31T01:47:03.771Z,0.00
2019-03-31T01:48:03.538Z,0.00
2019-03-31T01:49:03.755Z,0.00
2019-03-31T01:50:03.535Z,0.00
2019-03-31T01:51:03.529Z,0.00
2019-03-31T01:52:03.741Z,0.00
2019-03-31T01:53:03.719Z,0.00
2019-03-31T01:54:03.540Z,0.00
2019-03-31T01:55:03.707Z,0.00
2019-03-31T01:56:03.713Z,0.00
2019-03-31T01:57:03.498Z,0.00
2019-03-31T01:58:03.481Z,0.00
2019-03-31T01:59:03.475Z,0.00
2019-03-31T02:00:03.477Z,0.00
2019-03-31T02:01:03.493Z,0.00
2019-03-31T02:02:04.705Z,0.00
2019-03-31T02:03:03.458Z,0.00
2019-03-31T02:04:03.472Z,0.00
2019-03-31T02:05:03.454Z,0.00
2019-03-31T02:06:03.469Z,0.00
2019-03-31T02:07:03.435Z,0.00
2019-03-31T02:08:03.429Z,0.00
2019-03-31T02:09:03.450Z,0.00
2019-03-31T02:10:03.433Z,0.00
2019-03-31T02:11:03.405Z,0.00
2019-03-31T02:12:03.401Z,0.00
2019-03-31T02:13:03.393Z,0.00
2019-03-31T02:14:03.416Z,0.00
2019-03-31T02:15:03.387Z,0.00
2019-03-31T02:16:03.380Z,0.00
2019-03-31T02:17:03.375Z,0.00
2019-03-31T02:18:03.370Z,0.00
2019-03-31T02:19:03.363Z,0.00
2019-03-31T02:20:03.367Z,0.00
2019-03-31T02:21:03.354Z,0.00
2019-03-31T02:22:03.361Z,0.00
2019-03-31T02:23:03.356Z,0.00
2019-03-31T02:24:03.335Z,0.00
2019-03-31T02:25:03.352Z,0.00
2019-03-31T02:26:03.335Z,0.00
2019-03-31T02:27:03.318Z,0.00
2019-03-31T02:28:03.311Z,0.00
2019-03-31T02:29:03.308Z,0.00
2019-03-31T02:30:03.300Z,0.00
2019-03-31T02:31:03.303Z,0.00
2019-03-31T02:32:22.041Z,0.00
2019-03-31T02:33:03.293Z,0.00
2019-03-31T02:34:03.292Z,0.00
2019-03-31T02:35:03.310Z,0.00
2019-03-31T02:36:03.293Z,0.00
2019-03-31T02:37:03.263Z,0.00
2019-03-31T02:38:03.265Z,0.00
2019-03-31T02:39:03.253Z,0.00
2019-03-31T02:40:03.241Z,0.00
2019-03-31T02:41:03.245Z,0.00
2019-03-31T02:42:03.255Z,0.00
2019-03-31T02:43:03.456Z,0.00
2019-03-31T02:44:03.231Z,0.00
2019-03-31T02:45:03.210Z,0.00
2019-03-31T02:46:03.244Z,0.00
2019-03-31T02:47:03.231Z,0.00
2019-03-31T02:48:03.265Z,0.00
2019-03-31T02:49:03.197Z,0.00
2019-03-31T02:50:03.189Z,0.00
2019-03-31T02:51:03.175Z,0.00
2019-03-31T02:52:03.194Z,0.00
2019-03-31T02:53:03.168Z,0.00
2019-03-31T02:54:03.181Z,0.00
2019-03-31T02:55:03.167Z,0.00
2019-03-31T02:56:03.167Z,0.00
2019-03-31T02:57:03.145Z,0.00
2019-03-31T02:58:03.152Z,0.00
2019-03-31T02:59:03.161Z,0.00
2019-03-31T03:00:03.144Z,0.00
2019-03-31T03:01:03.120Z,0.00
2019-03-31T03:02:03.161Z,0.00
2019-03-31T03:03:03.141Z,0.00
2019-03-31T03:04:03.112Z,0.00
2019-03-31T03:05:17.959Z,0.00
2019-03-31T03:06:03.107Z,0.00
2019-03-31T03:07:03.091Z,0.00
2019-03-31T03:08:03.085Z,0.00
2019-03-31T03:09:03.083Z,0.00
2019-03-31T03:10:03.091Z,0.00
2019-03-31T03:11:03.058Z,0.00
2019-03-31T03:12:03.061Z,0.00
2019-03-31T03:13:03.085Z,0.00
2019-03-31T03:14:03.060Z,0.00
2019-03-31T03:15:03.046Z,0.00
2019-03-31T03:16:03.053Z,0.00
2019-03-31T03:17:03.250Z,0.00
2019-03-31T03:18:03.021Z,0.00
2019-03-31T03:19:03.018Z,0.00
2019-03-31T03:20:03.033Z,0.00
2019-03-31T03:21:03.205Z,0.00
2019-03-31T03:22:03.016Z,0.00
2019-03-31T03:23:03.007Z,0.00
2019-03-31T03:24:03.000Z,0.00
2019-03-31T03:25:03.009Z,0.00
2019-03-31T03:26:02.983Z,0.00
2019-03-31T03:27:02.983Z,0.00
2019-03-31T03:28:02.974Z,0.00
2019-03-31T03:29:02.969Z,0.00
2019-03-31T03:30:02.998Z,0.00
2019-03-31T03:31:03.193Z,0.00
2019-03-31T03:32:03.179Z,0.00
2019-03-31T03:33:16.300Z,0.00
2019-03-31T03:34:02.979Z,0.00
2019-03-31T03:35:02.951Z,0.00
2019-03-31T03:36:02.920Z,0.00
2019-03-31T03:37:02.979Z,0.00
2019-03-31T03:38:02.906Z,0.00
2019-03-31T03:39:03.103Z,0.00
2019-03-31T03:40:02.913Z,0.00
2019-03-31T03:41:02.909Z,0.00
2019-03-31T03:42:03.105Z,0.00
2019-03-31T03:43:02.886Z,0.00
2019-03-31T03:44:03.019Z,0.00
2019-03-31T03:45:02.881Z,0.00
2019-03-31T03:46:02.893Z,0.00
2019-03-31T03:47:02.869Z,0.00
2019-03-31T03:48:02.869Z,0.00
2019-03-31T03:49:03.061Z,0.00
2019-03-31T03:50:02.875Z,0.00
2019-03-31T03:51:02.843Z,0.00
2019-03-31T03:52:02.862Z,0.00
2019-03-31T03:53:02.835Z,0.00
2019-03-31T03:54:02.840Z,0.00
2019-03-31T03:55:02.816Z,0.00
2019-03-31T03:56:02.801Z,0.00
2019-03-31T03:57:02.803Z,0.00
2019-03-31T03:58:03.006Z,0.00
2019-03-31T03:59:02.989Z,0.00
2019-03-31T04:00:02.791Z,0.00
2019-03-31T04:01:02.772Z,0.00
2019-03-31T04:02:02.772Z,0.00
2019-03-31T04:03:02.770Z,0.00
2019-03-31T04:04:02.971Z,0.00
2019-03-31T04:05:02.968Z,0.00
2019-03-31T04:06:02.765Z,0.00
2019-03-31T04:07:02.739Z,0.00
2019-03-31T04:08:02.725Z,0.00
2019-03-31T04:09:02.763Z,0.00
2019-03-31T04:10:02.936Z,0.00
2019-03-31T04:11:02.747Z,0.00
2019-03-31T04:12:02.738Z,0.00
2019-03-31T04:13:02.695Z,0.00
2019-03-31T04:14:02.892Z,0.00
2019-03-31T04:15:02.698Z,0.00
2019-03-31T04:16:02.679Z,0.00
2019-03-31T04:17:02.689Z,0.00
2019-03-31T04:18:02.689Z,0.00
2019-03-31T04:19:02.690Z,0.00
2019-03-31T04:20:02.667Z,0.00
2019-03-31T04:21:02.859Z,0.00
2019-03-31T04:22:02.667Z,0.00
2019-03-31T04:23:02.644Z,0.00
2019-03-31T04:24:02.814Z,0.00
2019-03-31T04:25:02.634Z,0.00
2019-03-31T04:26:02.619Z,0.00
2019-03-31T04:27:02.831Z,0.00
2019-03-31T04:28:02.618Z,0.00
2019-03-31T04:29:02.624Z,0.00
2019-03-31T04:30:02.614Z,0.00
2019-03-31T04:31:02.592Z,0.00
2019-03-31T04:32:02.805Z,0.00
2019-03-31T04:33:02.596Z,0.00
2019-03-31T04:34:02.579Z,0.00
2019-03-31T04:35:02.591Z,0.00
2019-03-31T04:36:02.573Z,0.00
2019-03-31T04:37:02.566Z,0.00
2019-03-31T04:38:02.549Z,0.00
2019-03-31T04:39:02.762Z,0.00
2019-03-31T04:40:02.747Z,0.00
2019-03-31T04:41:02.548Z,0.00
2019-03-31T04:42:02.534Z,0.00
2019-03-31T04:43:02.528Z,0.00
2019-03-31T04:44:02.547Z,0.00
2019-03-31T04:45:02.721Z,0.00
2019-03-31T04:46:02.507Z,0.00
2019-03-31T04:47:02.520Z,0.00
2019-03-31T04:48:02.502Z,4.00
2019-03-31T04:49:02.689Z,0.00
2019-03-31T04:50:02.487Z,0.00
2019-03-31T04:51:02.712Z,0.00
2019-03-31T04:52:02.488Z,4.00
2019-03-31T04:53:02.670Z,0.00
2019-03-31T04:54:02.489Z,4.00
2019-03-31T04:55:02.458Z,0.00
2019-03-31T04:56:02.657Z,4.00
2019-03-31T04:57:04.490Z,4.00
2019-03-31T04:58:02.433Z,8.00
2019-03-31T04:59:02.435Z,4.00
2019-03-31T05:00:02.441Z,4.00
2019-03-31T05:01:02.622Z,8.00
2019-03-31T05:02:02.417Z,12.00
2019-03-31T05:03:02.441Z,12.00
2019-03-31T05:04:05.146Z,12.00
2019-03-31T05:05:02.416Z,12.00
2019-03-31T05:06:02.667Z,16.00
2019-03-31T05:07:02.411Z,16.00
2019-03-31T05:08:02.389Z,20.00
2019-03-31T05:09:02.377Z,24.00
2019-03-31T05:10:02.376Z,20.00
2019-03-31T05:11:02.370Z,24.00
2019-03-31T05:12:02.384Z,28.00
2019-03-31T05:13:02.353Z,32.00
2019-03-31T05:14:02.349Z,32.00
2019-03-31T05:15:02.339Z,36.00
2019-03-31T05:16:02.372Z,40.00
2019-03-31T05:17:02.343Z,44.00
2019-03-31T05:18:02.323Z,48.00
2019-03-31T05:19:02.316Z,52.00
2019-03-31T05:20:02.315Z,52.00
2019-03-31T05:21:02.309Z,60.00
2019-03-31T05:22:02.327Z,64.00
2019-03-31T05:23:02.305Z,68.00
2019-03-31T05:24:02.499Z,72.00
2019-03-31T05:25:02.302Z,80.00
2019-03-31T05:26:02.318Z,84.00
2019-03-31T05:27:02.515Z,92.00
2019-03-31T05:28:02.270Z,92.00
2019-03-31T05:29:02.266Z,100.00
2019-03-31T05:30:02.258Z,104.00
2019-03-31T05:31:02.461Z,112.00
2019-03-31T05:32:02.261Z,120.00
2019-03-31T05:33:02.449Z,128.00
2019-03-31T05:34:02.264Z,136.00
2019-03-31T05:35:02.460Z,144.00
2019-03-31T05:36:02.238Z,156.00
2019-03-31T05:37:02.220Z,164.00
2019-03-31T05:38:02.215Z,172.00
2019-03-31T05:39:02.221Z,180.00
2019-03-31T05:40:02.235Z,192.00
2019-03-31T05:41:02.209Z,200.00
2019-03-31T05:42:02.198Z,216.00
2019-03-31T05:43:02.199Z,228.00
2019-03-31T05:44:05.969Z,236.00
2019-03-31T05:45:02.380Z,252.00
2019-03-31T05:46:02.203Z,268.00
2019-03-31T05:47:02.185Z,280.00
2019-03-31T05:48:02.164Z,296.00
2019-03-31T05:49:02.176Z,308.00
2019-03-31T05:50:02.151Z,324.00
2019-03-31T05:51:02.153Z,336.00
2019-03-31T05:52:02.138Z,356.00
2019-03-31T05:53:02.132Z,368.00
2019-03-31T05:54:02.133Z,384.00
2019-03-31T05:55:02.136Z,396.00
2019-03-31T05:56:02.130Z,412.00
2019-03-31T05:57:02.342Z,424.00
2019-03-31T05:58:02.115Z,436.00
2019-03-31T05:59:02.115Z,444.00
2019-03-31T06:00:02.109Z,452.00
2019-03-31T06:01:02.115Z,464.00
2019-03-31T06:02:02.089Z,468.00
2019-03-31T06:03:02.111Z,492.00
2019-03-31T06:04:02.088Z,504.00
2019-03-31T06:05:02.074Z,520.00
2019-03-31T06:06:02.273Z,544.00
2019-03-31T06:07:02.070Z,572.00
2019-03-31T06:08:02.270Z,596.00
2019-03-31T06:09:02.054Z,620.00
2019-03-31T06:10:02.066Z,648.00
2019-03-31T06:11:02.258Z,668.00
2019-03-31T06:12:02.272Z,696.00
2019-03-31T06:13:02.036Z,716.00
2019-03-31T06:14:02.030Z,736.00
2019-03-31T06:15:02.027Z,756.00
2019-03-31T06:16:02.220Z,776.00
2019-03-31T06:17:02.027Z,804.00
2019-03-31T06:19:02.019Z,844.00
2019-03-31T06:20:02.013Z,856.00
2019-03-31T06:21:01.991Z,868.00
2019-03-31T06:22:02.192Z,884.00
2019-03-31T06:23:02.020Z,900.00
2019-03-31T06:24:01.985Z,916.00
2019-03-31T06:25:01.982Z,936.00
2019-03-31T06:26:02.198Z,952.00
2019-03-31T06:27:01.963Z,976.00
2019-03-31T06:28:01.975Z,992.00
2019-03-31T06:29:01.964Z,1012.00
2019-03-31T06:30:01.962Z,1028.00
2019-03-31T06:31:01.948Z,1040.00
2019-03-31T06:32:01.956Z,1052.00
2019-03-31T06:33:02.156Z,1068.00
2019-03-31T06:34:01.937Z,1080.00
2019-03-31T06:36:01.918Z,1104.00
2019-03-31T06:37:01.947Z,1100.00
2019-03-31T06:38:01.919Z,1096.00
2019-03-31T06:39:01.920Z,1096.00
2019-03-31T06:40:01.921Z,1088.00
2019-03-31T06:41:01.903Z,1076.00
2019-03-31T06:42:01.895Z,1104.00
2019-03-31T06:43:01.889Z,1076.00
2019-03-31T06:44:01.880Z,1084.00
2019-03-31T06:45:01.906Z,1056.00
2019-03-31T06:46:01.890Z,988.00
2019-03-31T06:47:01.870Z,904.00
2019-03-31T06:48:01.895Z,828.00
2019-03-31T06:49:01.915Z,772.00
2019-03-31T06:50:01.878Z,760.00
2019-03-31T06:51:01.863Z,776.00
2019-03-31T06:52:01.849Z,804.00
2019-03-31T06:53:01.851Z,824.00
2019-03-31T06:54:01.837Z,828.00
2019-03-31T06:55:01.833Z,812.00
2019-03-31T06:56:01.839Z,780.00
2019-03-31T06:57:01.826Z,764.00
2019-03-31T06:58:02.029Z,748.00
2019-03-31T06:59:01.811Z,724.00
2019-03-31T07:00:02.025Z,684.00
2019-03-31T07:01:01.810Z,640.00
2019-03-31T07:02:03.164Z,596.00
2019-03-31T07:03:01.813Z,572.00
2019-03-31T07:04:01.797Z,556.00
2019-03-31T07:05:02.114Z,564.00
2019-03-31T07:06:01.984Z,556.00
2019-03-31T07:07:01.794Z,564.00
2019-03-31T07:08:01.773Z,572.00
2019-03-31T07:09:01.765Z,604.00
2019-03-31T07:10:01.826Z,636.00
2019-03-31T07:11:01.780Z,652.00
2019-03-31T07:12:01.772Z,672.00
2019-03-31T07:13:01.781Z,668.00
2019-03-31T07:14:01.801Z,664.00
2019-03-31T07:15:01.765Z,692.00
2019-03-31T07:16:01.787Z,712.00
2019-03-31T07:17:01.751Z,748.00
2019-03-31T07:18:01.744Z,772.00
2019-03-31T07:19:01.735Z,808.00
2019-03-31T07:20:01.724Z,840.00
2019-03-31T07:21:01.706Z,884.00
2019-03-31T07:22:01.726Z,948.00
2019-03-31T07:23:01.718Z,1100.00
2019-03-31T07:24:01.695Z,1244.00
2019-03-31T07:25:01.699Z,1432.00
2019-03-31T07:26:01.689Z,1632.00
2019-03-31T07:27:01.692Z,1820.00
2019-03-31T07:28:01.673Z,2020.00
2019-03-31T07:29:01.699Z,2324.00
2019-03-31T07:30:01.673Z,2364.00
2019-03-31T07:31:01.673Z,2480.00
2019-03-31T07:32:01.655Z,2496.00
2019-03-31T07:33:01.642Z,2824.00
2019-03-31T07:34:01.635Z,3512.00
2019-03-31T07:35:01.626Z,4272.00
2019-03-31T07:36:01.627Z,4828.00
2019-03-31T07:37:01.620Z,5336.00
2019-03-31T07:38:01.613Z,4788.00
2019-03-31T07:39:01.612Z,3992.00
2019-03-31T07:40:01.726Z,3028.00
2019-03-31T07:41:12.485Z,2968.00
2019-03-31T07:42:02.118Z,3768.00
2019-03-31T07:43:01.618Z,3652.00
2019-03-31T07:44:01.610Z,1680.00
2019-03-31T07:45:01.580Z,1520.00
2019-03-31T07:46:01.573Z,1472.00
2019-03-31T07:47:01.585Z,1700.00
2019-03-31T07:48:01.573Z,2244.00
2019-03-31T07:49:01.595Z,1180.00
2019-03-31T07:50:01.561Z,1080.00
2019-03-31T07:51:01.751Z,1096.00
2019-03-31T07:52:01.747Z,988.00
2019-03-31T07:53:01.733Z,912.00
2019-03-31T07:54:01.735Z,884.00
2019-03-31T07:55:01.759Z,832.00
2019-03-31T07:56:01.525Z,776.00
2019-03-31T07:57:01.521Z,760.00
2019-03-31T07:58:01.548Z,800.00
2019-03-31T07:59:01.507Z,808.00
2019-03-31T08:00:01.804Z,784.00
2019-03-31T08:01:01.514Z,720.00
2019-03-31T08:02:01.503Z,704.00
2019-03-31T08:03:01.483Z,632.00
2019-03-31T08:04:01.599Z,600.00
2019-03-31T08:05:01.521Z,548.00
2019-03-31T08:06:01.577Z,496.00
2019-03-31T08:07:01.595Z,464.00
2019-03-31T08:08:01.553Z,432.00
2019-03-31T08:09:01.462Z,396.00
2019-03-31T08:10:01.534Z,372.00
2019-03-31T08:11:01.481Z,352.00
2019-03-31T08:12:01.449Z,344.00
2019-03-31T08:13:01.528Z,340.00
2019-03-31T08:14:01.462Z,320.00
2019-03-31T08:15:01.488Z,316.00
2019-03-31T08:16:01.466Z,308.00
2019-03-31T08:17:01.430Z,304.00
2019-03-31T08:18:01.495Z,296.00
2019-03-31T08:19:01.429Z,284.00
2019-03-31T08:20:01.409Z,276.00
2019-03-31T08:21:01.415Z,272.00
2019-03-31T08:22:01.381Z,264.00
2019-03-31T08:23:01.404Z,264.00
2019-03-31T08:24:01.404Z,264.00
2019-03-31T08:25:01.400Z,268.00
2019-03-31T08:26:01.391Z,272.00
2019-03-31T08:27:01.357Z,288.00
2019-03-31T08:28:01.426Z,304.00
2019-03-31T08:29:01.341Z,308.00
2019-03-31T08:30:01.518Z,316.00
2019-03-31T08:31:01.368Z,328.00
2019-03-31T08:32:01.368Z,316.00
2019-03-31T08:33:01.387Z,316.00
2019-03-31T08:34:01.327Z,304.00
2019-03-31T08:35:01.429Z,300.00
2019-03-31T08:36:01.319Z,292.00
2019-03-31T08:37:01.303Z,288.00
2019-03-31T08:38:01.289Z,280.00
2019-03-31T08:39:01.295Z,272.00
2019-03-31T08:40:01.282Z,264.00
2019-03-31T08:41:01.266Z,256.00
2019-03-31T08:42:01.295Z,248.00
2019-03-31T08:43:01.454Z,244.00
2019-03-31T08:44:01.314Z,248.00
2019-03-31T08:45:01.267Z,240.00
2019-03-31T08:46:01.253Z,240.00
2019-03-31T08:47:01.237Z,244.00
2019-03-31T08:48:01.250Z,256.00
2019-03-31T08:49:01.302Z,256.00
2019-03-31T08:50:02.311Z,268.00
2019-03-31T08:51:01.204Z,268.00
2019-03-31T08:52:01.197Z,276.00
2019-03-31T08:53:01.199Z,276.00
2019-03-31T08:54:01.184Z,280.00
2019-03-31T08:55:01.243Z,280.00
2019-03-31T08:56:01.200Z,276.00
2019-03-31T08:57:01.169Z,276.00
2019-03-31T08:58:01.198Z,276.00
2019-03-31T08:59:01.190Z,276.00
2019-03-31T09:00:01.156Z,276.00
2019-03-31T09:01:01.163Z,276.00
2019-03-31T09:02:03.293Z,276.00
2019-03-31T09:03:01.235Z,280.00
2019-03-31T09:04:01.175Z,284.00
2019-03-31T09:05:01.134Z,280.00
2019-03-31T09:06:02.563Z,280.00
2019-03-31T09:07:01.111Z,280.00
2019-03-31T09:08:01.135Z,280.00
2019-03-31T09:09:01.176Z,272.00
2019-03-31T09:10:01.141Z,264.00
2019-03-31T09:11:01.103Z,248.00
2019-03-31T09:12:01.114Z,240.00
2019-03-31T09:13:01.082Z,228.00
2019-03-31T09:14:01.094Z,224.00
2019-03-31T09:15:01.151Z,216.00
2019-03-31T09:16:01.092Z,212.00
2019-03-31T09:17:01.096Z,204.00
2019-03-31T09:18:01.066Z,200.00
2019-03-31T09:19:01.053Z,196.00
2019-03-31T09:20:01.068Z,196.00
2019-03-31T09:21:01.039Z,192.00
2019-03-31T09:22:01.088Z,184.00
2019-03-31T09:23:01.102Z,180.00
2019-03-31T09:24:01.028Z,176.00
2019-03-31T09:25:01.033Z,176.00
2019-03-31T09:26:01.091Z,172.00
2019-03-31T09:27:01.093Z,168.00
2019-03-31T09:28:01.026Z,168.00
2019-03-31T09:29:01.132Z,168.00
2019-03-31T09:30:01.073Z,168.00
2019-03-31T09:31:00.999Z,164.00
2019-03-31T09:32:01.120Z,164.00
2019-03-31T09:33:00.989Z,164.00
2019-03-31T09:34:01.008Z,164.00
2019-03-31T09:35:01.001Z,164.00
2019-03-31T09:36:15.073Z,164.00
2019-03-31T09:37:00.987Z,164.00
2019-03-31T09:38:00.960Z,168.00
2019-03-31T09:39:00.956Z,172.00
2019-03-31T09:40:00.954Z,176.00
2019-03-31T09:41:00.947Z,180.00
2019-03-31T09:42:00.963Z,188.00
2019-03-31T09:43:00.958Z,196.00
2019-03-31T09:44:00.976Z,200.00
2019-03-31T09:45:00.923Z,204.00
2019-03-31T09:46:00.912Z,212.00
2019-03-31T09:47:00.901Z,212.00
2019-03-31T09:48:00.929Z,220.00
2019-03-31T09:49:00.912Z,232.00
2019-03-31T09:50:00.897Z,232.00
2019-03-31T09:51:00.874Z,236.00
2019-03-31T09:52:00.886Z,240.00
2019-03-31T09:53:00.954Z,244.00
2019-03-31T09:54:00.886Z,248.00
2019-03-31T09:55:00.869Z,256.00
2019-03-31T09:56:00.849Z,260.00
2019-03-31T09:57:00.876Z,264.00
2019-03-31T09:58:00.874Z,264.00
2019-03-31T09:59:00.863Z,268.00
2019-03-31T10:00:00.848Z,272.00
2019-03-31T10:01:00.842Z,276.00
2019-03-31T10:02:00.865Z,284.00
2019-03-31T10:03:01.264Z,292.00
2019-03-31T10:04:00.835Z,296.00
2019-03-31T10:05:00.865Z,304.00
2019-03-31T10:06:10.668Z,312.00
2019-03-31T10:07:00.831Z,324.00
2019-03-31T10:08:00.786Z,332.00
2019-03-31T10:09:00.792Z,344.00
2019-03-31T10:10:00.824Z,348.00
2019-03-31T10:11:02.789Z,360.00
2019-03-31T10:12:00.822Z,360.00
2019-03-31T10:13:00.798Z,368.00
2019-03-31T10:14:00.750Z,368.00
2019-03-31T10:15:00.760Z,368.00
2019-03-31T10:16:00.765Z,376.00
2019-03-31T10:17:00.791Z,380.00
2019-03-31T10:18:00.785Z,388.00
2019-03-31T10:19:00.731Z,384.00
2019-03-31T10:20:00.710Z,388.00
2019-03-31T10:21:00.701Z,392.00
2019-03-31T10:22:00.701Z,400.00
2019-03-31T10:23:00.695Z,404.00
2019-03-31T10:24:00.908Z,412.00
2019-03-31T10:25:00.779Z,416.00
2019-03-31T10:26:00.709Z,424.00
2019-03-31T10:27:00.688Z,428.00
2019-03-31T10:28:00.741Z,432.00
2019-03-31T10:29:00.669Z,436.00
2019-03-31T10:30:00.722Z,440.00
2019-03-31T10:31:00.824Z,444.00
2019-03-31T10:32:00.734Z,452.00
2019-03-31T10:33:00.756Z,452.00
2019-03-31T10:34:00.630Z,452.00
2019-03-31T10:35:00.651Z,460.00
2019-03-31T10:36:00.860Z,468.00
2019-03-31T10:37:00.811Z,468.00
2019-03-31T10:38:00.625Z,472.00
2019-03-31T10:39:00.616Z,480.00
2019-03-31T10:40:00.599Z,488.00
2019-03-31T10:41:00.600Z,496.00
2019-03-31T10:42:00.811Z,500.00
2019-03-31T10:43:00.580Z,508.00
2019-03-31T10:44:00.596Z,516.00
2019-03-31T10:45:00.566Z,524.00
2019-03-31T10:46:00.573Z,528.00
2019-03-31T10:47:00.561Z,536.00
2019-03-31T10:48:00.568Z,544.00
2019-03-31T10:49:00.549Z,548.00
2019-03-31T10:50:00.540Z,556.00
2019-03-31T10:51:00.568Z,560.00
2019-03-31T10:52:00.539Z,568.00
2019-03-31T10:53:00.524Z,576.00
2019-03-31T10:54:00.518Z,580.00
2019-03-31T10:55:00.534Z,588.00
2019-03-31T10:56:00.726Z,592.00
2019-03-31T10:57:00.525Z,600.00
2019-03-31T10:58:00.503Z,608.00
2019-03-31T10:59:00.488Z,612.00
2019-03-31T11:00:00.506Z,624.00
2019-03-31T11:01:00.474Z,628.00
2019-03-31T11:02:00.476Z,640.00
2019-03-31T11:03:00.462Z,652.00
2019-03-31T11:04:00.469Z,656.00
2019-03-31T11:05:00.452Z,668.00
2019-03-31T11:06:00.446Z,676.00
2019-03-31T11:07:03.533Z,684.00
2019-03-31T11:08:00.436Z,692.00
2019-03-31T11:09:00.537Z,708.00
2019-03-31T11:10:00.427Z,712.00
2019-03-31T11:11:00.622Z,728.00
2019-03-31T11:12:00.419Z,740.00
2019-03-31T11:13:00.418Z,752.00
2019-03-31T11:14:00.623Z,764.00
2019-03-31T11:15:00.429Z,772.00
2019-03-31T11:16:00.397Z,784.00
2019-03-31T11:17:00.394Z,796.00
2019-03-31T11:18:00.585Z,820.00
2019-03-31T11:19:00.600Z,832.00
2019-03-31T11:20:00.959Z,848.00
2019-03-31T11:21:00.379Z,864.00
2019-03-31T11:22:00.368Z,884.00
2019-03-31T11:23:00.354Z,908.00
2019-03-31T11:24:00.350Z,908.00
2019-03-31T11:25:00.376Z,920.00
2019-03-31T11:26:00.350Z,936.00
2019-03-31T11:27:00.338Z,944.00
2019-03-31T11:28:00.366Z,948.00
2019-03-31T11:29:00.341Z,960.00
2019-03-31T11:30:00.522Z,968.00
2019-03-31T11:31:00.327Z,984.00
2019-03-31T11:32:00.309Z,996.00
2019-03-31T11:33:00.309Z,1040.00
2019-03-31T11:34:00.299Z,1060.00
2019-03-31T11:35:00.497Z,1056.00
2019-03-31T11:36:00.286Z,1076.00
2019-03-31T11:37:12.937Z,1100.00
2019-03-31T11:38:00.297Z,1120.00
2019-03-31T11:39:00.298Z,1104.00
2019-03-31T11:40:00.405Z,1116.00
2019-03-31T11:41:00.265Z,1100.00
2019-03-31T11:42:00.255Z,1104.00
2019-03-31T11:43:00.252Z,1084.00
2019-03-31T11:44:00.247Z,1092.00
2019-03-31T11:45:00.420Z,1088.00
2019-03-31T11:46:00.232Z,1088.00
2019-03-31T11:47:00.235Z,1084.00
2019-03-31T11:48:00.236Z,1072.00
2019-03-31T11:49:00.236Z,1060.00
2019-03-31T11:50:00.493Z,1032.00
2019-03-31T11:51:00.480Z,1012.00
2019-03-31T11:52:00.215Z,996.00
2019-03-31T11:53:00.222Z,984.00
2019-03-31T11:54:00.203Z,972.00
2019-03-31T11:55:00.277Z,972.00
2019-03-31T11:56:00.190Z,972.00
2019-03-31T11:57:00.380Z,968.00
2019-03-31T11:58:00.171Z,972.00
2019-03-31T11:59:00.170Z,964.00
2019-03-31T12:00:00.409Z,968.00
2019-03-31T12:01:00.167Z,972.00
2019-03-31T12:02:00.157Z,1012.00
2019-03-31T12:03:00.353Z,1012.00
2019-03-31T12:04:00.139Z,1040.00
2019-03-31T12:05:00.399Z,1048.00
2019-03-31T12:06:00.137Z,1056.00
2019-03-31T12:07:00.143Z,1040.00
2019-03-31T12:08:00.148Z,1036.00
2019-03-31T12:09:00.125Z,1048.00
2019-03-31T12:10:00.359Z,1044.00
2019-03-31T12:11:00.112Z,1028.00
2019-03-31T12:12:00.111Z,1020.00
2019-03-31T12:13:00.093Z,1044.00
2019-03-31T12:14:00.094Z,1076.00
2019-03-31T12:15:01.068Z,1132.00
2019-03-31T12:16:00.084Z,1096.00
2019-03-31T12:17:00.140Z,1112.00
2019-03-31T12:18:00.082Z,1116.00
2019-03-31T12:19:00.111Z,1140.00
2019-03-31T12:20:00.102Z,1148.00
2019-03-31T12:21:00.051Z,1156.00
2019-03-31T12:22:00.051Z,1144.00
2019-03-31T12:23:00.043Z,1120.00
2019-03-31T12:24:00.081Z,1112.00
2019-03-31T12:25:00.029Z,1096.00
2019-03-31T12:26:00.037Z,1068.00
2019-03-31T12:27:00.032Z,1032.00
2019-03-31T12:28:00.034Z,1008.00
2019-03-31T12:29:00.041Z,988.00
2019-03-31T12:30:00.001Z,976.00
2019-03-31T12:31:00.005Z,948.00
2019-03-31T12:31:59.993Z,940.00
2019-03-31T12:33:00.211Z,924.00
2019-03-31T12:33:59.987Z,912.00
2019-03-31T12:34:59.975Z,916.00
2019-03-31T12:36:00.180Z,900.00
2019-03-31T12:36:59.966Z,892.00
2019-03-31T12:37:59.991Z,884.00
2019-03-31T12:38:59.965Z,876.00
2019-03-31T12:39:59.955Z,872.00
2019-03-31T12:40:59.947Z,872.00
2019-03-31T12:41:59.960Z,868.00
2019-03-31T12:42:59.944Z,872.00
2019-03-31T12:43:59.938Z,876.00
2019-03-31T12:44:59.950Z,872.00
2019-03-31T12:45:59.937Z,872.00
2019-03-31T12:46:59.942Z,892.00